createdAt,value
2018-11-13T00:00:30.123Z,61.20
2018-11-13T00:01:30.094Z,60.00
2018-11-13T00:02:30.066Z,57.40
2018-11-13T00:03:30.037Z,57.20
2018-11-13T00:04:30.012Z,61.20
2018-11-13T00:05:29.978Z,62.40
2018-11-13T00:06:29.951Z,58.80
2018-11-13T00:07:29.921Z,62.60
2018-11-13T00:08:29.893Z,60.80
2018-11-13T00:09:29.867Z,64.90
2018-11-13T00:10:29.835Z,54.90
2018-11-13T00:11:29.859Z,61.80
2018-11-13T00:12:29.786Z,60.80
2018-11-13T00:13:29.749Z,59.50
2018-11-13T00:14:29.721Z,59.20
2018-11-13T00:15:29.698Z,66.40
2018-11-13T00:16:29.663Z,60.60
2018-11-13T00:17:29.634Z,64.90
2018-11-13T00:18:29.606Z,65.40
2018-11-13T00:19:29.576Z,64.00
2018-11-13T00:20:29.549Z,63.00
2018-11-13T00:21:29.520Z,64.30
2018-11-13T00:22:29.491Z,61.20
2018-11-13T00:23:29.465Z,64.00
2018-11-13T00:24:29.434Z,54.40
2018-11-13T00:25:29.405Z,62.00
2018-11-13T00:26:29.381Z,64.10
2018-11-13T00:27:29.365Z,59.50
2018-11-13T00:28:29.392Z,62.40
2018-11-13T00:29:29.374Z,63.20
2018-11-13T00:30:29.261Z,63.20
2018-11-13T00:31:29.237Z,62.70
2018-11-13T00:32:29.208Z,61.80
2018-11-13T00:33:29.180Z,60.20
2018-11-13T00:34:29.149Z,61.60
2018-11-13T00:35:29.120Z,65.20
2018-11-13T00:36:29.089Z,64.40
2018-11-13T00:37:29.063Z,64.90
2018-11-13T00:38:29.031Z,68.50
2018-11-13T00:39:29.003Z,65.10
2018-11-13T00:40:28.981Z,67.90
2018-11-13T00:41:28.945Z,67.50
2018-11-13T00:42:28.915Z,62.90
2018-11-13T00:43:28.887Z,63.20
2018-11-13T00:44:28.858Z,64.50
2018-11-13T00:45:28.859Z,60.40
2018-11-13T00:46:28.801Z,62.80
2018-11-13T00:47:28.777Z,64.00
2018-11-13T00:48:29.041Z,59.90
2018-11-13T00:49:28.715Z,61.30
2018-11-13T00:50:28.715Z,66.70
2018-11-13T00:51:28.657Z,61.30
2018-11-13T00:52:28.628Z,63.50
2018-11-13T00:53:28.604Z,71.50
2018-11-13T00:54:28.571Z,73.30
2018-11-13T00:55:28.542Z,72.70
2018-11-13T00:56:28.516Z,75.00
2018-11-13T00:57:28.485Z,72.70
2018-11-13T00:58:28.462Z,77.70
2018-11-13T00:59:28.496Z,74.40
2018-11-13T01:00:28.400Z,69.20
2018-11-13T01:01:28.370Z,81.80
2018-11-13T01:02:28.341Z,79.10
2018-11-13T01:03:28.315Z,75.50
2018-11-13T01:04:28.285Z,82.60
2018-11-13T01:05:28.352Z,88.00
2018-11-13T01:06:28.227Z,81.30
2018-11-13T01:07:28.197Z,79.90
2018-11-13T01:08:28.170Z,86.10
2018-11-13T01:09:28.141Z,87.50
2018-11-13T01:10:28.117Z,68.00
2018-11-13T01:11:28.082Z,81.10
2018-11-13T01:12:28.054Z,92.90
2018-11-13T01:13:28.455Z,84.70
2018-11-13T01:14:27.996Z,87.90
2018-11-13T01:15:27.967Z,84.30
2018-11-13T01:16:27.940Z,76.90
2018-11-13T01:17:27.941Z,87.30
2018-11-13T01:18:27.887Z,96.80
2018-11-13T01:19:27.852Z,94.30
2018-11-13T01:20:27.823Z,95.50
2018-11-13T01:21:27.795Z,98.70
2018-11-13T01:22:27.808Z,94.30
2018-11-13T01:23:27.744Z,88.90
2018-11-13T01:24:27.708Z,92.20
2018-11-13T01:25:27.682Z,89.90
2018-11-13T01:26:27.657Z,90.10
2018-11-13T01:27:27.622Z,93.30
2018-11-13T01:28:27.593Z,94.90
2018-11-13T01:29:27.565Z,96.30
2018-11-13T01:30:27.538Z,92.00
2018-11-13T01:31:27.859Z,97.30
2018-11-13T01:32:27.481Z,92.10
2018-11-13T01:33:27.461Z,84.20
2018-11-13T01:34:27.456Z,87.50
2018-11-13T01:35:27.392Z,87.20
2018-11-13T01:36:27.365Z,95.30
2018-11-13T01:37:27.337Z,95.80
2018-11-13T01:38:27.307Z,87.00
2018-11-13T01:39:27.278Z,94.50
2018-11-13T01:40:27.252Z,84.70
2018-11-13T01:41:27.221Z,97.30
2018-11-13T01:42:27.194Z,93.90
2018-11-13T01:43:27.162Z,95.70
2018-11-13T01:44:27.135Z,89.60
2018-11-13T01:45:27.106Z,88.00
2018-11-13T01:46:27.081Z,88.10
2018-11-13T01:47:27.049Z,85.70
2018-11-13T01:48:27.019Z,92.50
2018-11-13T01:49:26.994Z,95.90
2018-11-13T01:50:26.963Z,95.60
2018-11-13T01:51:26.933Z,92.50
2018-11-13T01:52:26.904Z,92.90
2018-11-13T01:53:26.880Z,90.30
2018-11-13T01:54:26.918Z,93.30
2018-11-13T01:55:26.819Z,94.10
2018-11-13T01:56:26.792Z,92.90
2018-11-13T01:57:26.851Z,105.30
2018-11-13T01:58:26.733Z,98.50
2018-11-13T01:59:26.704Z,94.70
2018-11-13T02:00:26.678Z,97.50
2018-11-13T02:01:26.647Z,101.30
2018-11-13T02:02:26.618Z,99.00
2018-11-13T02:03:26.589Z,96.40
2018-11-13T02:04:26.561Z,98.10
2018-11-13T02:05:26.535Z,107.60
2018-11-13T02:06:26.505Z,98.90
2018-11-13T02:07:26.477Z,103.30
2018-11-13T02:08:26.445Z,100.40
2018-11-13T02:09:26.417Z,99.40
2018-11-13T02:10:26.387Z,94.70
2018-11-13T02:11:26.358Z,98.90
2018-11-13T02:12:26.335Z,94.80
2018-11-13T02:13:26.301Z,100.80
2018-11-13T02:14:26.273Z,98.40
2018-11-13T02:15:26.243Z,103.40
2018-11-13T02:16:26.214Z,100.50
2018-11-13T02:17:26.186Z,104.40
2018-11-13T02:18:26.157Z,106.80
2018-11-13T02:19:26.127Z,100.90
2018-11-13T02:20:26.103Z,105.80
2018-11-13T02:21:26.071Z,108.80
2018-11-13T02:22:26.045Z,103.70
2018-11-13T02:23:26.016Z,101.40
2018-11-13T02:24:25.985Z,108.60
2018-11-13T02:25:25.956Z,98.50
2018-11-13T02:26:25.927Z,111.40
2018-11-13T02:27:25.901Z,107.80
2018-11-13T02:28:25.869Z,105.20
2018-11-13T02:29:25.840Z,109.80
2018-11-13T02:30:25.812Z,110.70
2018-11-13T02:31:25.783Z,114.70
2018-11-13T02:32:25.755Z,108.20
2018-11-13T02:33:25.726Z,112.00
2018-11-13T02:34:25.697Z,115.10
2018-11-13T02:35:25.703Z,109.00
2018-11-13T02:36:25.641Z,112.40
2018-11-13T02:37:25.611Z,108.50
2018-11-13T02:38:25.582Z,107.70
2018-11-13T02:39:25.554Z,102.50
2018-11-13T02:40:25.525Z,106.80
2018-11-13T02:41:25.496Z,109.10
2018-11-13T02:42:25.467Z,111.60
2018-11-13T02:43:25.436Z,113.30
2018-11-13T02:44:25.409Z,112.00
2018-11-13T02:45:25.381Z,114.40
2018-11-13T02:46:25.352Z,111.80
2018-11-13T02:47:25.323Z,112.70
2018-11-13T02:48:25.293Z,111.30
2018-11-13T02:49:25.269Z,112.80
2018-11-13T02:50:25.240Z,110.40
2018-11-13T02:51:25.210Z,116.20
2018-11-13T02:52:25.184Z,115.10
2018-11-13T02:53:25.150Z,114.30
2018-11-13T02:54:25.122Z,112.80
2018-11-13T02:55:25.092Z,115.80
2018-11-13T02:56:25.064Z,116.60
2018-11-13T02:57:25.035Z,118.20
2018-11-13T02:58:25.007Z,114.90
2018-11-13T02:59:24.982Z,121.00
2018-11-13T03:00:24.948Z,113.40
2018-11-13T03:01:24.922Z,121.10
2018-11-13T03:02:24.896Z,127.50
2018-11-13T03:03:24.863Z,127.40
2018-11-13T03:04:24.839Z,122.70
2018-11-13T03:05:24.804Z,119.20
2018-11-13T03:06:24.777Z,126.70
2018-11-13T03:07:24.823Z,123.90
2018-11-13T03:08:24.719Z,126.30
2018-11-13T03:09:24.695Z,122.80
2018-11-13T03:10:24.662Z,123.70
2018-11-13T03:11:24.634Z,128.20
2018-11-13T03:12:24.604Z,127.50
2018-11-13T03:13:24.575Z,130.30
2018-11-13T03:14:24.564Z,125.40
2018-11-13T03:15:24.517Z,122.50
2018-11-13T03:16:24.488Z,120.60
2018-11-13T03:17:24.460Z,118.10
2018-11-13T03:18:24.436Z,119.70
2018-11-13T03:19:24.402Z,125.10
2018-11-13T03:20:24.374Z,113.10
2018-11-13T03:21:24.344Z,128.10
2018-11-13T03:22:24.316Z,117.00
2018-11-13T03:23:24.437Z,122.90
2018-11-13T03:24:24.259Z,127.00
2018-11-13T03:25:24.231Z,116.40
2018-11-13T03:26:24.201Z,115.20
2018-11-13T03:27:24.170Z,125.70
2018-11-13T03:28:24.189Z,120.50
2018-11-13T03:29:24.114Z,118.40
2018-11-13T03:30:24.087Z,121.00
2018-11-13T03:31:24.131Z,125.10
2018-11-13T03:32:24.029Z,120.10
2018-11-13T03:33:24.000Z,119.30
2018-11-13T03:34:23.970Z,120.90
2018-11-13T03:35:23.962Z,139.30
2018-11-13T03:36:23.913Z,124.00
2018-11-13T03:37:23.884Z,119.20
2018-11-13T03:38:23.856Z,118.00
2018-11-13T03:39:23.829Z,125.80
2018-11-13T03:40:23.801Z,123.00
2018-11-13T03:41:23.769Z,118.30
2018-11-13T03:42:23.742Z,122.50
2018-11-13T03:43:23.712Z,120.80
2018-11-13T03:44:23.684Z,127.00
2018-11-13T03:45:23.653Z,110.10
2018-11-13T03:46:23.881Z,117.50
2018-11-13T03:47:23.597Z,122.90
2018-11-13T03:48:23.569Z,117.00
2018-11-13T03:49:23.539Z,115.30
2018-11-13T03:50:23.513Z,124.60
2018-11-13T03:51:23.481Z,122.90
2018-11-13T03:52:23.453Z,96.50
2018-11-13T03:53:23.428Z,114.90
2018-11-13T03:54:23.396Z,124.50
2018-11-13T03:55:23.367Z,116.20
2018-11-13T03:56:23.341Z,121.70
2018-11-13T03:57:23.309Z,113.80
2018-11-13T03:58:23.281Z,114.90
2018-11-13T03:59:23.251Z,118.10
2018-11-13T04:00:23.223Z,118.90
2018-11-13T04:01:23.195Z,125.50
2018-11-13T04:02:23.169Z,130.50
2018-11-13T04:03:23.140Z,130.30
2018-11-13T04:04:23.110Z,126.50
2018-11-13T04:05:23.079Z,124.40
2018-11-13T04:06:23.051Z,131.30
2018-11-13T04:07:23.026Z,132.40
2018-11-13T04:08:22.991Z,133.50
2018-11-13T04:09:22.964Z,141.30
2018-11-13T04:10:22.942Z,145.00
2018-11-13T04:11:22.912Z,148.20
2018-11-13T04:12:22.878Z,157.20
2018-11-13T04:13:22.849Z,155.40
2018-11-13T04:14:22.823Z,154.70
2018-11-13T04:15:22.792Z,156.00
2018-11-13T04:16:22.762Z,170.00
2018-11-13T04:17:22.736Z,165.50
2018-11-13T04:18:22.707Z,171.90
2018-11-13T04:19:22.676Z,182.30
2018-11-13T04:20:22.654Z,177.00
2018-11-13T04:21:22.620Z,179.00
2018-11-13T04:22:22.594Z,180.70
2018-11-13T04:23:22.561Z,187.40
2018-11-13T04:24:22.532Z,197.50
2018-11-13T04:25:22.507Z,195.80
2018-11-13T04:26:22.475Z,187.40
2018-11-13T04:27:22.445Z,212.80
2018-11-13T04:28:22.417Z,209.80
2018-11-13T04:29:22.390Z,198.40
2018-11-13T04:30:22.360Z,205.10
2018-11-13T04:31:22.331Z,213.20
2018-11-13T04:32:22.304Z,209.20
2018-11-13T04:33:22.275Z,217.50
2018-11-13T04:34:22.247Z,213.90
2018-11-13T04:35:22.216Z,214.30
2018-11-13T04:36:22.186Z,208.20
2018-11-13T04:37:22.157Z,219.80
2018-11-13T04:38:22.128Z,230.90
2018-11-13T04:40:04.449Z,234.10
2018-11-13T04:41:04.226Z,237.70
2018-11-13T04:42:04.192Z,233.00
2018-11-13T04:43:04.160Z,241.50
2018-11-13T04:44:04.131Z,248.60
2018-11-13T04:45:04.106Z,248.50
2018-11-13T04:46:04.072Z,240.60
2018-11-13T04:47:04.043Z,243.40
2018-11-13T04:48:04.023Z,248.80
2018-11-13T04:49:03.986Z,263.00
2018-11-13T04:50:03.972Z,272.30
2018-11-13T04:51:46.331Z,254.40
2018-11-13T04:52:46.046Z,264.20
2018-11-13T04:53:46.018Z,266.00
2018-11-13T04:54:45.988Z,267.80
2018-11-13T04:55:46.003Z,267.40
2018-11-13T04:56:45.935Z,280.50
2018-11-13T04:57:45.912Z,268.90
2018-11-13T04:58:45.876Z,269.90
2018-11-13T04:59:45.844Z,265.50
2018-11-13T05:00:45.815Z,290.30
2018-11-13T05:01:45.786Z,267.50
2018-11-13T05:02:45.812Z,254.80
2018-11-13T05:03:45.732Z,233.60
2018-11-13T05:04:45.700Z,232.40
2018-11-13T05:05:45.672Z,234.80
2018-11-13T05:06:45.639Z,267.30
2018-11-13T05:07:45.612Z,261.70
2018-11-13T05:08:45.582Z,252.00
2018-11-13T05:09:45.553Z,265.70
2018-11-13T05:10:45.527Z,261.00
2018-11-13T05:11:45.495Z,255.20
2018-11-13T05:12:45.467Z,276.30
2018-11-13T05:13:45.437Z,284.10
2018-11-13T05:14:45.408Z,261.90
2018-11-13T05:15:45.379Z,269.70
2018-11-13T05:16:45.350Z,260.10
2018-11-13T05:17:45.336Z,265.80
2018-11-13T05:18:45.293Z,257.60
2018-11-13T05:19:45.268Z,255.70
2018-11-13T05:20:45.234Z,252.20
2018-11-13T05:21:45.245Z,267.30
2018-11-13T05:22:45.176Z,256.00
2018-11-13T05:23:45.151Z,264.90
2018-11-13T05:24:45.121Z,253.00
2018-11-13T05:25:45.090Z,268.70
2018-11-13T05:26:45.064Z,252.50
2018-11-13T05:27:45.031Z,268.70
2018-11-13T05:28:45.000Z,250.20
2018-11-13T05:29:44.972Z,250.80
2018-11-13T05:30:44.949Z,248.10
2018-11-13T05:31:44.917Z,242.80
2018-11-13T05:32:44.903Z,233.30
2018-11-13T05:33:44.858Z,254.00
2018-11-13T05:34:44.832Z,233.60
2018-11-13T05:35:44.799Z,251.70
2018-11-13T05:36:44.771Z,215.00
2018-11-13T05:37:44.741Z,237.20
2018-11-13T05:38:44.714Z,221.20
2018-11-13T05:39:44.685Z,210.60
2018-11-13T05:40:44.654Z,215.90
2018-11-13T05:41:44.679Z,208.10
2018-11-13T05:42:44.596Z,214.90
2018-11-13T05:43:44.568Z,206.30
2018-11-13T05:44:44.544Z,197.70
2018-11-13T05:45:44.509Z,189.60
2018-11-13T05:46:44.480Z,193.60
2018-11-13T05:47:44.455Z,189.50
2018-11-13T05:48:44.423Z,182.40
2018-11-13T05:49:44.393Z,174.00
2018-11-13T05:50:44.365Z,167.10
2018-11-13T05:51:44.336Z,167.40
2018-11-13T05:52:44.310Z,157.50
2018-11-13T05:53:44.278Z,172.80
2018-11-13T05:54:44.251Z,154.00
2018-11-13T05:55:44.225Z,159.30
2018-11-13T05:56:44.191Z,165.50
2018-11-13T05:57:44.164Z,141.50
2018-11-13T05:58:44.134Z,148.30
2018-11-13T05:59:44.138Z,130.30
2018-11-13T06:00:44.079Z,126.30
2018-11-13T06:01:44.051Z,129.50
2018-11-13T06:02:44.024Z,126.00
2018-11-13T06:03:43.998Z,122.20
2018-11-13T06:04:43.962Z,125.80
2018-11-13T06:05:43.933Z,120.30
2018-11-13T06:06:43.910Z,115.60
2018-11-13T06:07:43.878Z,119.00
2018-11-13T06:08:43.967Z,120.10
2018-11-13T06:09:43.818Z,114.20
2018-11-13T06:10:43.790Z,128.70
2018-11-13T06:11:43.770Z,122.40
2018-11-13T06:12:43.733Z,112.20
2018-11-13T06:13:43.704Z,101.50
2018-11-13T06:14:43.677Z,111.00
2018-11-13T06:15:43.647Z,107.90
2018-11-13T06:16:43.622Z,103.80
2018-11-13T06:17:43.592Z,98.10
2018-11-13T06:18:43.562Z,85.70
2018-11-13T06:19:43.532Z,98.30
2018-11-13T06:20:43.503Z,87.20
2018-11-13T06:21:43.480Z,91.60
2018-11-13T06:22:43.448Z,84.10
2018-11-13T06:23:43.418Z,83.50
2018-11-13T06:24:43.388Z,86.00
2018-11-13T06:25:43.360Z,78.20
2018-11-13T06:26:43.331Z,71.60
2018-11-13T06:27:43.302Z,72.70
2018-11-13T06:28:43.273Z,70.40
2018-11-13T06:29:43.376Z,73.60
2018-11-13T06:30:43.220Z,69.50
2018-11-13T06:31:43.190Z,68.70
2018-11-13T06:32:43.159Z,62.60
2018-11-13T06:33:43.129Z,59.00
2018-11-13T06:34:43.102Z,57.60
2018-11-13T06:35:43.074Z,52.50
2018-11-13T06:36:43.042Z,47.30
2018-11-13T06:37:43.018Z,48.70
2018-11-13T06:38:43.051Z,52.80
2018-11-13T06:39:42.959Z,49.00
2018-11-13T06:40:42.929Z,49.50
2018-11-13T06:41:42.900Z,54.80
2018-11-13T06:42:42.873Z,50.60
2018-11-13T06:43:42.844Z,47.60
2018-11-13T06:44:42.813Z,47.60
2018-11-13T06:45:42.788Z,51.30
2018-11-13T06:46:42.758Z,46.70
2018-11-13T06:47:42.736Z,46.90
2018-11-13T06:48:42.702Z,47.80
2018-11-13T06:49:42.840Z,55.90
2018-11-13T06:50:42.645Z,46.50
2018-11-13T06:51:42.616Z,47.80
2018-11-13T06:52:42.586Z,45.70
2018-11-13T06:53:42.573Z,46.30
2018-11-13T06:54:42.530Z,45.20
2018-11-13T06:55:42.501Z,43.50
2018-11-13T06:56:42.472Z,51.20
2018-11-13T06:57:42.444Z,50.70
2018-11-13T06:58:42.414Z,55.50
2018-11-13T06:59:42.392Z,58.90
2018-11-13T07:00:42.358Z,63.50
2018-11-13T07:01:42.329Z,67.50
2018-11-13T07:02:42.301Z,64.50
2018-11-13T07:03:42.273Z,62.60
2018-11-13T07:04:42.244Z,71.30
2018-11-13T07:05:42.215Z,68.60
2018-11-13T07:06:42.197Z,69.70
2018-11-13T07:07:42.159Z,69.40
2018-11-13T07:08:42.129Z,73.90
2018-11-13T07:09:42.103Z,74.20
2018-11-13T07:10:42.149Z,74.80
2018-11-13T07:11:42.043Z,93.90
2018-11-13T07:12:42.023Z,91.30
2018-11-13T07:13:41.991Z,104.80
2018-11-13T07:14:41.959Z,88.00
2018-11-13T07:15:41.931Z,85.90
2018-11-13T07:16:41.901Z,82.60
2018-11-13T07:17:41.874Z,81.80
2018-11-13T07:18:41.845Z,75.90
2018-11-13T07:19:41.816Z,74.90
2018-11-13T07:20:41.786Z,74.60
2018-11-13T07:21:41.759Z,73.70
2018-11-13T07:22:41.731Z,77.90
2018-11-13T07:23:41.702Z,72.60
2018-11-13T07:24:41.675Z,79.00
2018-11-13T07:25:41.644Z,80.00
2018-11-13T07:26:41.617Z,75.00
2018-11-13T07:27:41.785Z,75.30
2018-11-13T07:28:41.558Z,71.90
2018-11-13T07:29:41.531Z,80.70
2018-11-13T07:30:41.502Z,82.80
2018-11-13T07:31:41.489Z,75.80
2018-11-13T07:32:41.447Z,76.30
2018-11-13T07:33:41.439Z,71.00
2018-11-13T07:34:41.388Z,72.60
2018-11-13T07:35:41.360Z,71.30
2018-11-13T07:36:41.330Z,76.80
2018-11-13T07:37:41.303Z,71.30
2018-11-13T07:38:41.275Z,74.30
2018-11-13T07:39:41.246Z,68.40
2018-11-13T07:40:41.217Z,72.90
2018-11-13T07:41:41.190Z,70.00
2018-11-13T07:42:41.161Z,73.20
2018-11-13T07:43:41.136Z,70.00
2018-11-13T07:44:41.104Z,71.30
2018-11-13T07:45:41.075Z,66.60
2018-11-13T07:46:41.059Z,71.60
2018-11-13T07:47:41.204Z,68.50
2018-11-13T07:48:40.992Z,73.70
2018-11-13T07:49:40.961Z,71.70
2018-11-13T07:50:40.939Z,68.10
2018-11-13T07:51:40.905Z,74.70
2018-11-13T07:52:40.874Z,74.50
2018-11-13T07:53:40.854Z,72.00
2018-11-13T07:54:40.820Z,65.90
2018-11-13T07:55:40.791Z,66.70
2018-11-13T07:56:40.762Z,75.50
2018-11-13T07:57:40.735Z,69.10
2018-11-13T07:58:40.709Z,74.00
2018-11-13T07:59:40.678Z,62.30
2018-11-13T08:00:40.653Z,68.70
2018-11-13T08:01:40.621Z,65.70
2018-11-13T08:02:40.593Z,60.10
2018-11-13T08:03:40.628Z,65.00
2018-11-13T08:04:40.534Z,62.80
2018-11-13T08:05:40.510Z,67.60
2018-11-13T08:06:40.525Z,67.00
2018-11-13T08:07:40.452Z,62.60
2018-11-13T08:08:40.422Z,66.20
2018-11-13T08:09:40.393Z,62.00
2018-11-13T08:10:40.370Z,61.90
2018-11-13T08:11:40.343Z,58.20
2018-11-13T08:12:40.373Z,51.00
2018-11-13T08:13:40.389Z,57.50
2018-11-13T08:14:40.253Z,51.60
2018-11-13T08:15:40.349Z,45.80
2018-11-13T08:16:40.197Z,51.80
2018-11-13T08:17:40.168Z,33.90
2018-11-13T08:18:40.143Z,39.70
2018-11-13T08:19:40.114Z,41.60
2018-11-13T08:20:40.084Z,44.60
2018-11-13T08:21:40.056Z,37.60
2018-11-13T08:22:40.035Z,38.20
2018-11-13T08:23:40.001Z,39.80
2018-11-13T08:24:39.973Z,41.30
2018-11-13T08:25:40.008Z,38.70
2018-11-13T08:26:39.916Z,39.50
2018-11-13T08:27:39.893Z,36.80
2018-11-13T08:28:39.913Z,31.50
2018-11-13T08:29:39.904Z,26.70
2018-11-13T08:30:39.803Z,29.10
2018-11-13T08:31:39.778Z,28.60
2018-11-13T08:32:39.749Z,26.80
2018-11-13T08:33:39.719Z,23.30
2018-11-13T08:34:39.726Z,24.20
2018-11-13T08:35:39.691Z,28.60
2018-11-13T08:36:39.633Z,28.60
2018-11-13T08:37:39.607Z,24.60
2018-11-13T08:38:39.579Z,26.10
2018-11-13T08:39:39.552Z,31.80
2018-11-13T08:40:39.523Z,25.40
2018-11-13T08:41:39.495Z,22.60
2018-11-13T08:42:39.471Z,28.40
2018-11-13T08:43:39.482Z,33.10
2018-11-13T08:44:39.412Z,25.80
2018-11-13T08:45:39.384Z,32.50
2018-11-13T08:46:39.356Z,26.10
2018-11-13T08:47:39.336Z,23.90
2018-11-13T08:48:39.300Z,26.20
2018-11-13T08:49:39.285Z,38.10
2018-11-13T08:50:39.447Z,27.90
2018-11-13T08:51:39.224Z,27.90
2018-11-13T08:52:39.189Z,33.20
2018-11-13T08:53:39.164Z,31.30
2018-11-13T08:54:39.133Z,30.10
2018-11-13T08:55:39.108Z,34.70
2018-11-13T08:56:39.078Z,29.70
2018-11-13T08:57:39.051Z,28.10
2018-11-13T08:58:39.078Z,28.20
2018-11-13T08:59:39.050Z,26.70
2018-11-13T09:00:38.967Z,24.60
2018-11-13T09:01:38.940Z,26.50
2018-11-13T09:02:38.925Z,29.40
2018-11-13T09:03:38.893Z,27.50
2018-11-13T09:04:38.857Z,27.20
2018-11-13T09:05:38.835Z,29.50
2018-11-13T09:06:38.803Z,31.40
2018-11-13T09:07:38.785Z,27.60
2018-11-13T09:08:38.754Z,25.30
2018-11-13T09:09:38.722Z,26.00
2018-11-13T09:10:38.856Z,29.00
2018-11-13T09:11:38.801Z,30.50
2018-11-13T09:12:38.639Z,30.80
2018-11-13T09:13:38.611Z,29.90
2018-11-13T09:14:38.585Z,30.30
2018-11-13T09:15:38.764Z,26.40
2018-11-13T09:16:38.530Z,22.80
2018-11-13T09:17:38.503Z,26.40
2018-11-13T09:18:38.480Z,25.00
2018-11-13T09:19:38.720Z,20.90
2018-11-13T09:20:38.421Z,24.90
2018-11-13T09:21:38.412Z,27.30
2018-11-13T09:22:38.421Z,28.40
2018-11-13T09:23:38.341Z,23.90
2018-11-13T09:24:38.316Z,29.40
2018-11-13T09:25:38.290Z,32.70
2018-11-13T09:26:38.264Z,25.90
2018-11-13T09:27:38.234Z,24.90
2018-11-13T09:28:38.206Z,24.60
2018-11-13T09:29:38.180Z,24.40
2018-11-13T09:30:38.357Z,28.90
2018-11-13T09:31:38.154Z,30.90
2018-11-13T09:32:38.108Z,30.80
2018-11-13T09:33:38.088Z,28.10
2018-11-13T09:34:38.048Z,29.80
2018-11-13T09:35:38.018Z,29.30
2018-11-13T09:36:37.990Z,26.30
2018-11-13T09:37:38.067Z,23.20
2018-11-13T09:38:37.939Z,21.60
2018-11-13T09:39:37.908Z,26.30
2018-11-13T09:40:37.898Z,25.00
2018-11-13T09:41:37.866Z,27.90
2018-11-13T09:42:37.830Z,25.60
2018-11-13T09:43:37.801Z,29.20
2018-11-13T09:44:37.775Z,25.80
2018-11-13T09:45:37.748Z,25.20
2018-11-13T09:46:37.763Z,26.60
2018-11-13T09:47:37.769Z,22.70
2018-11-13T09:48:37.677Z,21.80
2018-11-13T09:49:37.642Z,21.50
2018-11-13T09:50:37.629Z,27.10
2018-11-13T09:51:37.584Z,29.10
2018-11-13T09:52:37.564Z,31.70
2018-11-13T09:53:37.574Z,29.90
2018-11-13T09:54:37.504Z,35.10
2018-11-13T09:55:37.477Z,30.20
2018-11-13T09:56:37.571Z,33.30
2018-11-13T09:57:37.445Z,34.30
2018-11-13T09:58:37.464Z,29.30
2018-11-13T09:59:37.366Z,31.60
2018-11-13T10:00:37.561Z,28.50
2018-11-13T10:01:37.613Z,30.50
2018-11-13T10:02:37.965Z,27.60
2018-11-13T10:03:37.964Z,30.60
2018-11-13T10:04:37.942Z,32.00
2018-11-13T10:05:37.398Z,35.70
2018-11-13T10:06:37.185Z,31.80
2018-11-13T10:07:37.147Z,34.10
2018-11-13T10:08:37.127Z,28.30
2018-11-13T10:09:37.092Z,27.00
2018-11-13T10:10:37.084Z,33.00
2018-11-13T10:11:37.038Z,29.40
2018-11-13T10:12:37.011Z,31.20
2018-11-13T10:13:36.985Z,31.70
2018-11-13T10:14:36.955Z,29.20
2018-11-13T10:15:36.929Z,27.90
2018-11-13T10:16:36.904Z,31.40
2018-11-13T10:17:36.936Z,33.40
2018-11-13T10:18:36.845Z,29.80
2018-11-13T10:19:36.823Z,33.60
2018-11-13T10:20:36.798Z,30.00
2018-11-13T10:21:36.766Z,27.90
2018-11-13T10:22:36.737Z,28.30
2018-11-13T10:23:36.712Z,30.30
2018-11-13T10:24:36.683Z,32.90
2018-11-13T10:25:36.653Z,31.70
2018-11-13T10:26:36.735Z,22.70
2018-11-13T10:27:36.659Z,34.80
2018-11-13T10:28:36.573Z,27.10
2018-11-13T10:29:36.543Z,33.20
2018-11-13T10:32:36.461Z,26.70
2018-11-13T10:33:36.434Z,34.30
2018-11-13T10:34:36.406Z,30.30
2018-11-13T10:35:36.381Z,30.70
2018-11-13T10:36:36.354Z,27.90
2018-11-13T10:37:36.324Z,33.30
2018-11-13T10:38:36.323Z,33.50
2018-11-13T10:39:36.267Z,35.20
2018-11-13T10:40:36.305Z,35.40
2018-11-13T10:41:36.270Z,33.10
2018-11-13T10:42:36.186Z,28.30
2018-11-13T10:43:36.159Z,31.90
2018-11-13T10:44:36.132Z,29.00
2018-11-13T10:45:36.114Z,27.70
2018-11-13T10:46:36.080Z,34.60
2018-11-13T10:47:36.048Z,31.40
2018-11-13T10:48:36.020Z,26.00
2018-11-13T10:49:35.998Z,30.60
2018-11-13T10:50:35.966Z,31.40
2018-11-13T10:51:35.938Z,27.40
2018-11-13T10:52:35.909Z,22.50
2018-11-13T10:53:35.885Z,31.40
2018-11-13T10:54:35.855Z,27.90
2018-11-13T10:55:35.831Z,32.80
2018-11-13T10:56:35.832Z,28.90
2018-11-13T10:57:35.779Z,29.90
2018-11-13T10:58:35.743Z,24.00
2018-11-13T10:59:35.717Z,30.40
2018-11-13T11:00:35.689Z,33.40
2018-11-13T11:01:35.666Z,29.70
2018-11-13T11:02:35.752Z,28.20
2018-11-13T11:03:35.608Z,32.60
2018-11-13T11:04:35.625Z,31.50
2018-11-13T11:05:35.562Z,24.00
2018-11-13T11:06:35.533Z,28.10
2018-11-13T11:07:35.498Z,24.90
2018-11-13T11:08:35.470Z,26.90
2018-11-13T11:09:35.443Z,26.80
2018-11-13T11:10:35.416Z,24.20
2018-11-13T11:11:35.534Z,24.60
2018-11-13T11:12:35.406Z,23.30
2018-11-13T11:13:35.490Z,22.20
2018-11-13T11:14:35.334Z,22.30
2018-11-13T11:15:35.283Z,24.00
2018-11-13T11:16:35.255Z,27.80
2018-11-13T11:17:35.229Z,26.80
2018-11-13T11:18:35.246Z,25.90
2018-11-13T11:19:35.279Z,23.00
2018-11-13T11:20:35.144Z,31.60
2018-11-13T11:21:35.118Z,35.30
2018-11-13T11:22:35.139Z,25.50
2018-11-13T11:23:35.277Z,23.10
2018-11-13T11:24:35.034Z,22.40
2018-11-13T11:25:35.007Z,23.50
2018-11-13T11:26:34.998Z,23.80
2018-11-13T11:27:34.955Z,26.90
2018-11-13T11:28:34.932Z,21.60
2018-11-13T11:29:34.906Z,25.50
2018-11-13T11:30:34.870Z,25.60
2018-11-13T11:31:34.843Z,25.80
2018-11-13T11:32:34.812Z,28.40
2018-11-13T11:33:34.792Z,30.80
2018-11-13T11:34:34.964Z,24.80
2018-11-13T11:35:34.732Z,27.80
2018-11-13T11:36:34.701Z,26.10
2018-11-13T11:37:34.680Z,27.80
2018-11-13T11:38:34.664Z,34.60
2018-11-13T11:39:34.618Z,30.10
2018-11-13T11:40:34.594Z,22.10
2018-11-13T11:41:34.572Z,16.30
2018-11-13T11:42:34.537Z,20.90
2018-11-13T11:43:34.512Z,17.60
2018-11-13T11:44:34.632Z,18.00
2018-11-13T11:45:34.455Z,14.20
2018-11-13T11:46:34.426Z,18.30
2018-11-13T11:47:34.398Z,21.70
2018-11-13T11:48:34.371Z,25.00
2018-11-13T11:49:34.342Z,29.80
2018-11-13T11:50:34.318Z,21.50
2018-11-13T11:51:34.288Z,20.00
2018-11-13T11:52:34.260Z,22.10
2018-11-13T11:53:34.239Z,18.80
2018-11-13T11:54:34.206Z,14.10
2018-11-13T11:55:34.182Z,17.30
2018-11-13T11:56:34.158Z,17.90
2018-11-13T11:57:34.123Z,14.20
2018-11-13T11:58:34.098Z,17.00
2018-11-13T11:59:34.071Z,21.20
2018-11-13T12:00:34.116Z,15.90
2018-11-13T12:01:34.036Z,20.80
2018-11-13T12:02:33.990Z,13.10
2018-11-13T12:03:33.961Z,13.40
2018-11-13T12:04:33.935Z,20.00
2018-11-13T12:05:33.906Z,13.80
2018-11-13T12:06:33.880Z,14.10
2018-11-13T12:07:33.851Z,23.60
2018-11-13T12:08:33.823Z,14.30
2018-11-13T12:09:33.798Z,12.00
2018-11-13T12:10:33.777Z,16.20
2018-11-13T12:11:33.741Z,14.30
2018-11-13T12:12:33.712Z,19.60
2018-11-13T12:13:33.685Z,15.00
2018-11-13T12:14:33.711Z,15.00
2018-11-13T12:15:33.633Z,10.90
2018-11-13T12:16:33.603Z,19.40
2018-11-13T12:17:33.580Z,11.30
2018-11-13T12:18:33.547Z,15.90
2018-11-13T12:19:33.681Z,10.90
2018-11-13T12:20:33.491Z,11.90
2018-11-13T12:21:33.481Z,10.20
2018-11-13T12:22:33.436Z,10.10
2018-11-13T12:23:33.408Z,14.50
2018-11-13T12:24:33.389Z,14.50
2018-11-13T12:25:33.360Z,10.40
2018-11-13T12:26:33.325Z,10.60
2018-11-13T12:27:33.298Z,13.60
2018-11-13T12:28:33.270Z,11.40
2018-11-13T12:29:33.242Z,13.10
2018-11-13T12:30:33.218Z,12.10
2018-11-13T12:31:33.188Z,12.60
2018-11-13T12:32:33.161Z,14.00
2018-11-13T12:33:33.132Z,7.90
2018-11-13T12:34:33.167Z,12.70
2018-11-13T12:35:33.079Z,10.40
2018-11-13T12:36:33.051Z,10.40
2018-11-13T12:37:33.029Z,14.50
2018-11-13T12:38:32.995Z,12.30
2018-11-13T12:39:32.968Z,14.20
2018-11-13T12:40:32.942Z,9.70
2018-11-13T12:41:32.913Z,9.80
2018-11-13T12:42:32.892Z,14.40
2018-11-13T12:43:32.857Z,8.70
2018-11-13T12:44:32.828Z,14.70
2018-11-13T12:45:32.801Z,11.70
2018-11-13T12:46:32.839Z,9.30
2018-11-13T12:47:32.746Z,9.80